Austin, Indiana
Current Conditions -  °F | °C
As of 11:12 PM on Sunday 25 Jan 2015 (Local Time) from KIMS Reporting Station
Overcast Overcast  
Wind Chill: 28°   Ceiling: 500
Heat Index: 36°   Visibility: 7mi
Dew Point: 34°   Wind: 10mph
Humidity: 93%   Direction: 340°NNW
Pressure: 29.71"   Gusts: NA
Location:  38.76°N, 85.81°W
Report Text: KIMS 260412Z AUTO 34009KT 7SM BKN005 BKN009 OVC013 02/01 A2971 RMK AO1
Loading
Personal Weather Stations






























Interactive Weather Map New forecast layout! Learn more

10-Day Weather Forecast

Advertisements
Track Severe Weather on mobile